Time;durP1;ratioP1;P1;durP2;ratioP2;P2;SDS_P1;SDS_P2;PMS_P1;PMS_P2;Temp;Humidity;BMP_temperature;BMP_pressure;BME280_temperature;BME280_humidity;BME280_pressure;Samples;Min_cycle;Max_cycle;Signal;HPM_P1;HPM_P2
2023/10/11 00:01:11;;;;;;;1.10;1.10;;;;;;;15.08;nan;61184.28;5031002;28;20249;-66
2023/10/11 00:03:45;;;;;;;0.88;0.88;;;;;;;14.98;nan;61075.84;5031399;28;20556;-65
2023/10/11 00:06:13;;;;;;;0.88;0.88;;;;;;;15.11;nan;61116.22;5031745;28;20178;-66
2023/10/11 00:08:40;;;;;;;1.02;1.02;;;;;;;15.08;nan;61086.53;5031680;28;20180;-65
2023/10/11 00:11:07;;;;;;;0.98;0.98;;;;;;;15.15;nan;61112.44;5031499;28;20207;-65
2023/10/11 00:13:35;;;;;;;0.88;0.88;;;;;;;15.06;nan;61097.16;5031892;28;20207;-65
2023/10/11 00:16:09;;;;;;;1.05;1.05;;;;;;;15.06;nan;61092.56;5031551;28;20160;-64
2023/10/11 00:18:37;;;;;;;1.15;1.00;;;;;;;15.09;nan;61067.63;5031980;28;20264;-64
2023/10/11 00:21:10;;;;;;;1.55;1.35;;;;;;;14.89;nan;61150.56;5031691;28;20255;-64
2023/10/11 00:23:38;;;;;;;0.95;0.93;;;;;;;15.04;nan;61182.91;5031895;28;20163;-65
2023/10/11 00:26:06;;;;;;;1.05;1.05;;;;;;;14.93;nan;61062.47;5031420;28;20644;-65
2023/10/11 00:28:32;;;;;;;1.05;1.05;;;;;;;14.88;nan;61028.56;5031786;28;20191;-66
2023/10/11 00:31:00;;;;;;;2.47;1.05;;;;;;;15.02;nan;61096.34;5029980;28;20187;-66
2023/10/11 00:33:27;;;;;;;1.33;1.23;;;;;;;14.85;nan;61059.16;5031250;28;20708;-63
2023/10/11 00:35:54;;;;;;;1.25;1.10;;;;;;;15.13;nan;61120.47;5031560;28;20220;-68
2023/10/11 00:38:27;;;;;;;0.70;0.70;;;;;;;14.87;nan;61166.31;5031438;28;20175;-64
2023/10/11 00:41:07;;;;;;;8.48;2.75;;;;;;;14.82;nan;61042.38;5031566;28;20294;-65
2023/10/11 00:43:37;;;;;;;0.75;0.75;;;;;;;15.04;nan;61168.03;5031545;28;20179;-64
2023/10/11 00:46:08;;;;;;;0.90;0.90;;;;;;;14.83;nan;61166.94;5031314;28;20171;-64
2023/10/11 00:48:39;;;;;;;1.00;1.00;;;;;;;14.70;nan;61026.84;5031351;28;20175;-65
2023/10/11 00:51:10;;;;;;;0.90;0.90;;;;;;;14.84;nan;61009.16;5031750;28;20637;-66
2023/10/11 00:53:36;;;;;;;0.90;0.90;;;;;;;15.01;nan;61362.75;5030966;28;20238;-66
2023/10/11 00:56:05;;;;;;;1.13;1.02;;;;;;;14.98;nan;61197.28;5031368;28;20195;-66
2023/10/11 00:58:31;;;;;;;1.05;1.05;;;;;;;14.81;nan;61115.81;5031290;28;20182;-66
2023/10/11 01:01:00;;;;;;;0.85;0.85;;;;;;;14.98;nan;61178.72;5031259;28;20168;-66
2023/10/11 01:03:31;;;;;;;1.00;1.00;;;;;;;15.11;nan;61111.06;5031301;28;20175;-65
2023/10/11 01:05:56;;;;;;;0.90;0.90;;;;;;;14.99;nan;61094.94;5031501;28;20172;-64
2023/10/11 01:08:22;;;;;;;0.80;0.80;;;;;;;15.09;nan;61059.91;5031253;28;20593;-65
2023/10/11 01:10:47;;;;;;;0.90;0.90;;;;;;;14.91;nan;61062.78;5031108;28;20213;-66
2023/10/11 01:13:14;;;;;;;1.10;1.10;;;;;;;14.69;nan;61002.59;5031201;28;20242;-64
2023/10/11 01:15:41;;;;;;;0.90;0.90;;;;;;;14.92;nan;61072.19;5031227;28;20317;-65
2023/10/11 01:18:06;;;;;;;0.88;0.88;;;;;;;14.70;nan;61162.56;5031149;28;20174;-64
2023/10/11 01:20:36;;;;;;;0.70;0.70;;;;;;;14.84;nan;61040.03;5033281;28;20179;-64
2023/10/11 01:23:04;;;;;;;1.02;1.02;;;;;;;14.90;nan;61208.81;5030215;28;20601;-64
2023/10/11 01:25:29;;;;;;;1.40;1.10;;;;;;;14.94;nan;61159.31;5034724;28;20197;-66
2023/10/11 01:27:55;;;;;;;0.93;0.93;;;;;;;14.78;nan;61092.44;5034807;28;20168;-65
2023/10/11 01:30:20;;;;;;;0.65;0.65;;;;;;;15.03;nan;61087.16;5034725;28;20179;-63
2023/10/11 01:32:47;;;;;;;0.80;0.80;;;;;;;14.79;nan;61181.00;5034059;28;20192;-66
2023/10/11 01:35:18;;;;;;;0.80;0.80;;;;;;;14.85;nan;61063.75;5034476;28;20175;-66
2023/10/11 01:37:44;;;;;;;0.88;0.88;;;;;;;14.76;nan;60977.03;5034456;28;20164;-65
2023/10/11 01:40:10;;;;;;;0.88;0.88;;;;;;;14.64;nan;61248.91;5034241;28;20178;-64
2023/10/11 01:42:36;;;;;;;1.70;0.98;;;;;;;14.97;nan;61031.53;5034303;28;20171;-66
2023/10/11 01:45:07;;;;;;;0.88;0.88;;;;;;;15.04;nan;61062.56;5034344;28;20175;-65
2023/10/11 01:47:35;;;;;;;0.80;0.80;;;;;;;14.93;nan;61021.91;5034254;28;20156;-66
2023/10/11 01:50:01;;;;;;;0.70;0.70;;;;;;;14.62;nan;61069.25;5032612;28;20594;-65
2023/10/11 01:52:26;;;;;;;1.10;1.10;;;;;;;14.45;nan;61035.22;5034231;28;20200;-64
2023/10/11 01:54:55;;;;;;;1.25;0.90;;;;;;;14.76;nan;61036.16;5033924;28;20618;-65
2023/10/11 01:57:25;;;;;;;1.42;1.27;;;;;;;14.44;nan;61131.75;5033907;28;20229;-65
2023/10/11 01:59:51;;;;;;;1.65;1.15;;;;;;;14.72;nan;61041.38;5033861;28;20258;-67
2023/10/11 02:02:16;;;;;;;0.90;0.90;;;;;;;14.68;nan;61083.72;5032409;28;20251;-65
2023/10/11 02:04:41;;;;;;;0.90;0.90;;;;;;;14.67;nan;61041.44;5033691;28;20183;-64
2023/10/11 02:07:07;;;;;;;0.73;0.73;;;;;;;14.68;nan;61045.16;5033982;28;20676;-65
2023/10/11 02:09:33;;;;;;;0.80;0.80;;;;;;;14.56;nan;61173.03;5032461;28;20167;-66
2023/10/11 02:11:59;;;;;;;1.00;0.85;;;;;;;14.76;nan;61036.16;5033299;28;20219;-64
2023/10/11 02:14:28;;;;;;;1.00;1.00;;;;;;;14.64;nan;61169.19;5033595;28;20194;-65
2023/10/11 02:16:53;;;;;;;0.90;0.90;;;;;;;14.56;nan;61191.03;5033441;28;20171;-65
2023/10/11 02:19:19;;;;;;;1.08;0.70;;;;;;;14.66;nan;61098.91;5033573;28;20655;-65
2023/10/11 02:21:44;;;;;;;0.80;0.80;;;;;;;14.48;nan;61053.47;5033674;28;20229;-66
2023/10/11 02:24:14;;;;;;;0.80;0.80;;;;;;;14.64;nan;61043.22;5033583;28;20266;-65
2023/10/11 02:26:41;;;;;;;0.80;0.80;;;;;;;14.50;nan;61035.72;5033569;28;20156;-63
2023/10/11 02:29:15;;;;;;;0.90;0.90;;;;;;;14.42;nan;61124.38;5033428;28;20191;-65
2023/10/11 02:31:40;;;;;;;0.75;0.75;;;;;;;14.73;nan;61042.50;5033079;28;20655;-64
2023/10/11 02:34:15;;;;;;;0.85;0.85;;;;;;;14.57;nan;61174.13;5033265;28;20175;-65
2023/10/11 02:36:44;;;;;;;0.85;0.85;;;;;;;14.74;nan;61049.34;5033375;28;20213;-65
2023/10/11 02:39:17;;;;;;;0.80;0.80;;;;;;;14.57;nan;61130.44;5033283;28;20167;-65
2023/10/11 02:41:46;;;;;;;0.80;0.80;;;;;;;14.74;nan;61125.91;5033255;28;20598;-65
2023/10/11 02:44:12;;;;;;;0.90;0.90;;;;;;;14.53;nan;61123.34;5032584;28;20603;-65
2023/10/11 02:46:37;;;;;;;0.75;0.75;;;;;;;14.51;nan;61147.38;5032667;28;20608;-65
2023/10/11 02:49:07;;;;;;;1.30;1.05;;;;;;;14.75;nan;61089.03;5033230;28;20175;-66
2023/10/11 02:51:33;;;;;;;0.80;0.80;;;;;;;14.15;nan;61096.44;5033408;28;20641;-66
2023/10/11 02:54:03;;;;;;;0.80;0.80;;;;;;;14.49;nan;61139.41;5033090;28;20178;-65
2023/10/11 02:56:29;;;;;;;0.80;0.80;;;;;;;14.41;nan;61156.09;5033123;28;20174;-64
2023/10/11 02:58:54;;;;;;;1.23;1.05;;;;;;;14.41;nan;60976.75;5032685;28;20172;-66
2023/10/11 03:01:22;;;;;;;0.98;0.98;;;;;;;14.64;nan;61035.50;5033209;28;20179;-64
2023/10/11 03:03:48;;;;;;;0.80;0.80;;;;;;;14.53;nan;61239.03;5031717;28;20183;-64
2023/10/11 03:06:14;;;;;;;1.58;0.93;;;;;;;14.42;nan;61188.06;5032813;28;20167;-65
2023/10/11 03:08:43;;;;;;;0.70;0.70;;;;;;;14.66;nan;61050.59;5032711;28;20199;-67
2023/10/11 03:11:15;;;;;;;1.00;1.00;;;;;;;14.62;nan;61035.81;5032706;28;20760;-65
2023/10/11 03:13:42;;;;;;;0.80;0.80;;;;;;;14.49;nan;61160.53;5032851;28;20207;-65
2023/10/11 03:16:17;;;;;;;0.95;0.95;;;;;;;14.54;nan;61116.78;5032828;28;20175;-64
2023/10/11 03:18:46;;;;;;;0.90;0.90;;;;;;;14.37;nan;60995.38;5032729;28;20159;-67
2023/10/11 03:21:17;;;;;;;1.45;1.35;;;;;;;14.49;nan;61114.28;5032726;28;20172;-65
2023/10/11 03:23:44;;;;;;;1.60;0.90;;;;;;;14.50;nan;61012.03;5031208;28;20663;-64
2023/10/11 03:26:31;;;;;;;0.93;0.93;;;;;;;14.37;nan;61115.59;5064088;28;20282;-66
2023/10/11 03:29:04;;;;;;;1.25;1.00;;;;;;;14.46;nan;60974.13;5032755;28;20183;-65
2023/10/11 03:31:40;;;;;;;0.82;0.82;;;;;;;14.43;nan;60909.06;5032865;28;20665;-65
2023/10/11 03:34:12;;;;;;;0.80;0.80;;;;;;;14.49;nan;61188.25;5032384;28;20634;-65
2023/10/11 03:36:49;;;;;;;0.80;0.80;;;;;;;14.63;nan;61015.81;5032531;28;20179;-65
2023/10/11 03:44:40;;;;;;;0.98;0.98;;;;;;;14.26;nan;61042.06;5031935;28;20667;-66
2023/10/11 03:47:08;;;;;;;0.95;0.95;;;;;;;14.19;nan;61131.81;5032212;28;20163;-64
2023/10/11 03:49:50;;;;;;;0.88;0.88;;;;;;;14.47;nan;61157.72;5032159;28;20241;-65
2023/10/11 03:52:30;;;;;;;1.00;1.00;;;;;;;14.47;nan;61004.06;5032141;28;20207;-65
2023/10/11 03:55:05;;;;;;;0.70;0.70;;;;;;;14.52;nan;61021.97;5031736;28;20600;-64
2023/10/11 03:57:36;;;;;;;1.70;1.17;;;;;;;14.45;nan;61140.03;5032144;28;20179;-65
2023/10/11 04:00:24;;;;;;;0.73;0.73;;;;;;;14.43;nan;61151.19;5032201;28;20167;-66
2023/10/11 04:02:47;;;;;;;0.90;0.90;;;;;;;14.41;nan;61038.44;5031454;28;20195;-64
2023/10/11 04:05:13;;;;;;;0.82;0.82;;;;;;;14.39;nan;60974.50;5031458;28;20179;-65
2023/10/11 04:07:40;;;;;;;0.90;0.90;;;;;;;14.34;nan;61117.31;5031781;28;20206;-66
2023/10/11 04:10:10;;;;;;;0.80;0.80;;;;;;;14.14;nan;60934.06;5030333;28;20175;-65
2023/10/11 04:12:38;;;;;;;0.80;0.80;;;;;;;14.22;nan;61165.44;5031112;28;20280;-64
2023/10/11 04:15:15;;;;;;;0.98;0.98;;;;;;;14.33;nan;61021.13;5031065;28;20552;-66
2023/10/11 04:17:41;;;;;;;1.88;1.63;;;;;;;14.37;nan;61152.13;5030032;28;20662;-65
2023/10/11 04:20:30;;;;;;;0.90;0.90;;;;;;;14.05;nan;61078.06;5031029;28;20283;-66
2023/10/11 04:23:14;;;;;;;0.90;0.90;;;;;;;14.18;nan;61102.41;5031352;28;20170;-66
2023/10/11 04:25:39;;;;;;;0.90;0.90;;;;;;;14.14;nan;61121.59;5030982;28;20191;-64
2023/10/11 04:28:05;;;;;;;0.90;0.90;;;;;;;14.28;nan;61059.75;5031363;28;20587;-65
2023/10/11 04:30:46;;;;;;;1.00;0.93;;;;;;;14.32;nan;60986.59;5031014;28;20610;-65
2023/10/11 04:33:20;;;;;;;1.05;1.05;;;;;;;14.15;nan;60957.75;5031189;28;20288;-65
2023/10/11 04:35:55;;;;;;;0.98;0.98;;;;;;;13.93;nan;61082.47;5029877;28;20180;-65
2023/10/11 04:38:21;;;;;;;0.85;0.85;;;;;;;14.27;nan;60962.97;5030691;28;20174;-64
2023/10/11 04:40:51;;;;;;;0.80;0.80;;;;;;;14.28;nan;61283.28;5031130;28;20179;-66
2023/10/11 04:43:20;;;;;;;0.80;0.80;;;;;;;14.09;nan;60997.81;5030932;28;20254;-65
2023/10/11 04:45:51;;;;;;;1.08;0.98;;;;;;;14.22;nan;61201.41;5030991;28;20178;-65
2023/10/11 04:48:33;;;;;;;0.90;0.90;;;;;;;14.13;nan;61014.56;5031256;28;20175;-65
2023/10/11 04:51:04;;;;;;;0.80;0.80;;;;;;;14.24;nan;61034.13;5031801;28;20233;-65
2023/10/11 04:59:07;;;;;;;0.80;0.80;;;;;;;14.09;nan;61223.84;5033117;28;20571;-63
2023/10/11 05:02:24;;;;;;;0.60;0.60;;;;;;;14.05;nan;61062.06;5034380;28;20266;-63
2023/10/11 05:04:30;;;;;;;0.90;0.90;;;;;;;14.36;nan;61007.09;5031186;28;20638;-64
2023/10/11 05:06:56;;;;;;;1.67;1.30;;;;;;;14.30;nan;61030.59;5034565;28;20175;-65
2023/10/11 05:09:29;;;;;;;0.85;0.85;;;;;;;14.33;nan;61157.31;5034935;28;20241;-64
2023/10/11 05:14:40;;;;;;;0.75;0.75;;;;;;;14.20;nan;61093.81;5034336;28;20166;-64
2023/10/11 05:19:46;;;;;;;0.80;0.80;;;;;;;14.34;nan;61045.94;5034565;28;20664;-63
2023/10/11 05:22:29;;;;;;;0.90;0.90;;;;;;;14.24;nan;60977.59;5034132;28;20179;-69
2023/10/11 05:32:42;;;;;;;0.80;0.80;;;;;;;14.37;nan;60961.97;5033976;28;20257;-64
2023/10/11 05:51:20;;;;;;;0.80;0.80;;;;;;;14.51;nan;61080.56;5031577;28;20186;-66
2023/10/11 05:53:51;;;;;;;0.82;0.82;;;;;;;14.68;nan;61293.97;5031303;28;20199;-66
2023/10/11 05:56:22;;;;;;;1.00;1.00;;;;;;;14.78;nan;61187.56;5032741;28;20244;-67
2023/10/11 05:58:52;;;;;;;0.90;0.90;;;;;;;14.95;nan;61173.31;5033959;28;20159;-65
2023/10/11 06:01:22;;;;;;;0.95;0.95;;;;;;;15.12;nan;61222.25;5033771;28;20183;-67
2023/10/11 06:03:50;;;;;;;0.80;0.80;;;;;;;15.36;nan;61113.50;5033421;28;20201;-64
2023/10/11 06:06:37;;;;;;;0.80;0.80;;;;;;;15.65;nan;61124.50;5033062;28;20175;-67
2023/10/11 06:09:05;;;;;;;1.55;1.45;;;;;;;15.80;nan;61149.16;5033962;28;20160;-69
2023/10/11 06:11:36;;;;;;;0.88;0.88;;;;;;;15.85;nan;61162.53;5032055;28;20234;-65
2023/10/11 06:14:07;;;;;;;0.90;0.90;;;;;;;15.91;nan;61272.88;5033162;28;20178;-63
2023/10/11 06:16:37;;;;;;;1.17;1.00;;;;;;;15.86;nan;61150.78;5030228;28;20187;-66
2023/10/11 06:19:25;;;;;;;0.73;0.73;;;;;;;16.06;nan;61221.72;5032276;28;20257;-65
2023/10/11 06:22:09;;;;;;;0.70;0.70;;;;;;;16.06;nan;61183.06;5031237;28;20179;-66
2023/10/11 06:24:38;;;;;;;0.80;0.80;;;;;;;16.20;nan;61202.00;5030200;28;20183;-65
2023/10/11 06:29:55;;;;;;;1.33;1.23;;;;;;;16.25;nan;61457.09;5032628;28;20236;-66
2023/10/11 06:32:22;;;;;;;0.80;0.80;;;;;;;16.53;nan;61377.94;5032827;28;20199;-67
2023/10/11 06:34:51;;;;;;;0.90;0.90;;;;;;;16.48;nan;61245.34;5033576;28;20240;-67
2023/10/11 06:37:19;;;;;;;1.35;1.25;;;;;;;16.32;nan;61200.06;5032749;28;20638;-66
2023/10/11 06:42:22;;;;;;;0.90;0.90;;;;;;;16.18;nan;61313.16;5033336;28;20171;-67
2023/10/11 06:44:52;;;;;;;1.08;1.08;;;;;;;16.18;nan;61199.75;5031904;28;20266;-65
2023/10/11 06:47:20;;;;;;;0.90;0.90;;;;;;;16.09;nan;61317.88;5030828;28;20673;-65
2023/10/11 06:49:55;;;;;;;0.80;0.80;;;;;;;16.05;nan;61277.84;5031842;28;20183;-65
2023/10/11 06:52:25;;;;;;;0.90;0.90;;;;;;;16.26;nan;61224.25;5031228;28;20207;-66
2023/10/11 06:55:13;;;;;;;0.80;0.80;;;;;;;16.59;nan;61221.69;5030825;28;20321;-66
2023/10/11 06:57:50;;;;;;;0.80;0.80;;;;;;;16.67;nan;61266.84;5028572;28;20700;-66
2023/10/11 07:02:54;;;;;;;1.58;1.00;;;;;;;17.00;nan;61331.94;5032134;28;20197;-66
2023/10/11 07:05:21;;;;;;;0.85;0.85;;;;;;;17.24;nan;61328.09;5032548;28;20602;-68
2023/10/11 07:07:52;;;;;;;0.75;0.75;;;;;;;17.22;nan;61444.56;5030598;28;20615;-66
2023/10/11 07:10:34;;;;;;;1.02;0.95;;;;;;;17.38;nan;61449.78;5032075;28;20195;-67
2023/10/11 07:13:05;;;;;;;3.80;1.10;;;;;;;17.52;nan;61315.81;5029799;28;20292;-65
2023/10/11 07:15:44;;;;;;;0.63;0.63;;;;;;;17.43;nan;61359.88;5032247;28;20238;-66
2023/10/11 07:18:12;;;;;;;0.65;0.65;;;;;;;17.81;nan;61487.56;5029864;28;20186;-66
2023/10/11 07:20:58;;;;;;;0.80;0.77;;;;;;;17.84;nan;61333.31;5031374;28;20182;-66
2023/10/11 07:23:27;;;;;;;0.60;0.60;;;;;;;18.14;nan;61554.84;5030621;28;20190;-65
2023/10/11 07:26:22;;;;;;;0.50;0.50;;;;;;;18.52;nan;61466.53;5031051;28;20188;-66
2023/10/11 07:28:51;;;;;;;1.30;1.20;;;;;;;18.55;nan;61697.06;5029271;28;20187;-65
2023/10/11 07:31:18;;;;;;;0.80;0.80;;;;;;;18.78;nan;61456.00;5028955;28;20197;-67
2023/10/11 07:33:49;;;;;;;0.93;0.93;;;;;;;18.60;nan;61513.28;5030937;28;20245;-66
2023/10/11 07:36:18;;;;;;;0.60;0.60;;;;;;;18.59;nan;61582.56;5031022;28;20187;-68
2023/10/11 07:38:56;;;;;;;0.70;0.70;;;;;;;18.70;nan;61496.13;5030755;28;20554;-65
2023/10/11 07:41:28;;;;;;;1.88;0.70;;;;;;;18.49;nan;61703.75;5029271;28;20218;-67
2023/10/11 07:43:57;;;;;;;0.57;0.57;;;;;;;18.56;nan;61579.19;5030726;28;20245;-65
2023/10/11 07:46:23;;;;;;;7.07;1.70;;;;;;;18.73;nan;61447.75;5030770;28;20183;-67
2023/10/11 07:48:56;;;;;;;10.60;1.30;;;;;;;18.70;nan;61493.53;5029506;28;20673;-66
2023/10/11 07:51:25;;;;;;;0.93;0.80;;;;;;;18.68;nan;61455.06;5028946;28;20262;-67
2023/10/11 07:53:51;;;;;;;2.15;1.15;;;;;;;18.91;nan;61519.91;5031558;28;20705;-64
2023/10/11 07:56:20;;;;;;;1.08;1.02;;;;;;;19.16;nan;61509.34;5031958;28;20215;-65
2023/10/11 07:58:57;;;;;;;1.00;1.00;;;;;;;19.28;nan;61515.16;5030429;28;20230;-67
2023/10/11 08:01:45;;;;;;;0.70;0.70;;;;;;;19.20;nan;61505.53;5030266;28;20646;-65
2023/10/11 08:04:47;;;;;;;0.57;0.57;;;;;;;18.58;nan;61599.56;5029313;28;20237;-65
2023/10/11 08:07:17;;;;;;;0.90;0.90;;;;;;;18.32;nan;61435.56;5027906;28;20191;-67
2023/10/11 08:09:52;;;;;;;1.35;1.25;;;;;;;18.25;nan;61428.22;5031360;28;20655;-67
2023/10/11 08:12:23;;;;;;;0.80;0.80;;;;;;;17.95;nan;61355.50;5056658;28;20242;-66
2023/10/11 08:15:31;;;;;;;0.90;0.88;;;;;;;18.48;nan;61508.00;5030982;28;20293;-67
2023/10/11 08:17:56;;;;;;;0.80;0.80;;;;;;;18.72;nan;61496.38;5031536;28;20202;-64
2023/10/11 08:20:28;;;;;;;0.70;0.70;;;;;;;19.10;nan;61515.50;5030681;28;20199;-68
2023/10/11 08:22:56;;;;;;;0.90;0.90;;;;;;;19.42;nan;61515.47;5031220;28;20266;-67
2023/10/11 08:25:26;;;;;;;0.80;0.80;;;;;;;19.46;nan;61540.19;5030924;28;20605;-66
2023/10/11 08:28:04;;;;;;;1.50;1.13;;;;;;;19.76;nan;61550.81;5031913;28;20262;-65
2023/10/11 08:30:31;;;;;;;1.02;0.93;;;;;;;20.02;nan;61641.38;5035455;28;20179;-65
2023/10/11 08:32:56;;;;;;;0.68;0.68;;;;;;;19.92;nan;61741.56;5035717;28;20203;-65
2023/10/11 08:35:31;;;;;;;0.82;0.82;;;;;;;20.09;nan;61672.66;5035851;28;20653;-66
2023/10/11 08:38:02;;;;;;;0.88;0.88;;;;;;;20.04;nan;61615.66;5036030;28;20163;-65
2023/10/11 08:40:34;;;;;;;1.02;0.93;;;;;;;20.33;nan;61675.97;5036078;28;20540;-66
2023/10/11 08:43:02;;;;;;;0.63;0.63;;;;;;;20.32;nan;61836.28;5035156;28;20175;-66
2023/10/11 08:45:33;;;;;;;0.60;0.60;;;;;;;20.13;nan;61721.84;5035628;28;20171;-66
2023/10/11 08:48:06;;;;;;;0.55;0.55;;;;;;;19.85;nan;61713.41;5035919;28;20615;-66
2023/10/11 08:50:37;;;;;;;1.02;0.77;;;;;;;19.74;nan;61566.72;5035570;28;20172;-66
2023/10/11 08:53:07;;;;;;;0.60;0.60;;;;;;;19.63;nan;61543.31;5035389;28;20205;-68
2023/10/11 08:55:35;;;;;;;0.80;0.80;;;;;;;19.91;nan;61600.94;5035271;28;20179;-65
2023/10/11 08:58:04;;;;;;;2.38;1.33;;;;;;;19.76;nan;61714.16;5035057;28;20242;-67
2023/10/11 09:00:31;;;;;;;0.80;0.80;;;;;;;19.59;nan;61580.25;5035377;28;20183;-64
2023/10/11 09:02:58;;;;;;;0.98;0.98;;;;;;;19.65;nan;61574.09;5035207;28;20171;-66
2023/10/11 09:05:42;;;;;;;1.20;0.75;;;;;;;19.77;nan;61709.53;5034935;28;20175;-65
2023/10/11 09:08:20;;;;;;;0.80;0.52;;;;;;;19.77;nan;61570.09;5035181;28;20160;-65
2023/10/11 09:10:49;;;;;;;0.82;0.82;;;;;;;20.03;nan;61746.81;5035358;28;20187;-66
2023/10/11 09:13:24;;;;;;;0.95;0.95;;;;;;;20.05;nan;61666.09;5035065;28;20210;-65
2023/10/11 09:15:54;;;;;;;0.65;0.65;;;;;;;20.01;nan;61627.28;5035446;28;20278;-64
2023/10/11 09:18:20;;;;;;;1.27;0.95;;;;;;;20.08;nan;61594.25;5034661;28;20552;-66
2023/10/11 09:20:55;;;;;;;0.65;0.65;;;;;;;19.71;nan;61578.28;5035276;28;20222;-66
2023/10/11 09:23:37;;;;;;;0.80;0.80;;;;;;;19.71;nan;61562.72;5035317;28;20179;-65
2023/10/11 09:26:05;;;;;;;0.50;0.50;;;;;;;19.35;nan;61646.88;5034992;28;20178;-67
2023/10/11 09:28:33;;;;;;;0.88;0.80;;;;;;;19.16;nan;61504.19;5034573;28;20538;-66
2023/10/11 09:31:15;;;;;;;1.23;1.13;;;;;;;18.87;nan;61590.44;5034268;28;20677;-66
2023/10/11 09:33:48;;;;;;;0.70;0.70;;;;;;;18.90;nan;61495.47;5034427;28;20582;-68
2023/10/11 09:36:15;;;;;;;0.65;0.65;;;;;;;18.77;nan;61592.63;5034644;28;20213;-65
2023/10/11 09:38:40;;;;;;;0.68;0.68;;;;;;;18.93;nan;61491.66;5034228;28;20217;-66
2023/10/11 09:41:10;;;;;;;1.70;1.08;;;;;;;18.98;nan;61595.72;5034134;28;20638;-67
2023/10/11 09:43:46;;;;;;;0.70;0.70;;;;;;;19.07;nan;61765.34;5034279;28;20167;-68
2023/10/11 09:46:13;;;;;;;0.80;0.80;;;;;;;19.13;nan;61479.50;5034122;28;20518;-66
2023/10/11 09:48:40;;;;;;;1.15;1.05;;;;;;;19.43;nan;61544.53;5033073;28;20539;-67
2023/10/11 09:51:13;;;;;;;0.95;0.93;;;;;;;19.58;nan;61558.38;5034247;28;20179;-64
2023/10/11 09:53:49;;;;;;;0.98;0.90;;;;;;;19.71;nan;61809.00;5034101;28;20736;-67
2023/10/11 09:56:38;;;;;;;0.95;0.75;;;;;;;19.94;nan;61679.53;5034707;28;20202;-65
2023/10/11 09:59:25;;;;;;;1.10;1.10;;;;;;;20.07;nan;61693.75;5034153;28;20552;-66
2023/10/11 10:02:19;;;;;;;1.42;1.33;;;;;;;20.11;nan;61693.66;5034409;28;20180;-68
2023/10/11 10:04:49;;;;;;;0.70;0.70;;;;;;;20.19;nan;61678.81;5034634;28;20167;-67
2023/10/11 10:07:25;;;;;;;1.10;1.00;;;;;;;20.16;nan;61768.81;5034059;28;20183;-65
2023/10/11 10:09:59;;;;;;;1.02;1.02;;;;;;;20.23;nan;61621.63;5034176;28;20167;-67
2023/10/11 10:12:31;;;;;;;2.45;0.95;;;;;;;20.02;nan;61638.78;5033772;28;20227;-66
2023/10/11 10:15:14;;;;;;;1.08;1.00;;;;;;;20.03;nan;61582.84;5034475;28;20168;-66
2023/10/11 10:18:00;;;;;;;2.00;0.77;;;;;;;20.15;nan;61684.66;5032374;28;20237;-69
2023/10/11 10:20:50;;;;;;;1.00;1.00;;;;;;;19.88;nan;61675.34;5033734;28;20167;-66
2023/10/11 10:23:14;;;;;;;1.73;1.20;;;;;;;19.80;nan;61664.22;5033167;28;20187;-68
2023/10/11 10:25:46;;;;;;;1.00;0.90;;;;;;;19.45;nan;61740.59;5033188;28;20183;-67
2023/10/11 10:28:36;;;;;;;1.35;1.23;;;;;;;19.59;nan;61619.69;5033329;28;20180;-66
2023/10/11 10:31:09;;;;;;;1.00;0.90;;;;;;;19.61;nan;61644.72;5033450;28;20660;-67
2023/10/11 10:33:39;;;;;;;0.85;0.85;;;;;;;19.44;nan;61517.19;5033154;28;20218;-66
2023/10/11 10:36:17;;;;;;;0.65;0.65;;;;;;;19.56;nan;61613.69;5033619;28;20159;-67
2023/10/11 10:39:01;;;;;;;1.20;1.10;;;;;;;19.39;nan;61615.72;5033344;28;20182;-66
2023/10/11 10:41:30;;;;;;;2.90;1.25;;;;;;;19.21;nan;61629.00;5033234;28;20240;-67
2023/10/11 10:44:13;;;;;;;1.50;1.20;;;;;;;19.43;nan;61528.97;5033145;28;20201;-66
2023/10/11 10:46:52;;;;;;;1.25;1.10;;;;;;;19.34;nan;61501.22;5032683;28;20576;-66
2023/10/11 10:49:19;;;;;;;0.90;0.90;;;;;;;19.31;nan;61547.06;5033041;28;20183;-65
2023/10/11 10:51:47;;;;;;;1.10;1.00;;;;;;;19.57;nan;61539.66;5032120;28;20229;-67
2023/10/11 10:54:14;;;;;;;2.10;1.33;;;;;;;19.79;nan;61535.50;5032805;28;20179;-66
2023/10/11 10:56:53;;;;;;;2.63;1.80;;;;;;;19.53;nan;61581.22;5033205;28;20179;-66
2023/10/11 10:59:25;;;;;;;3.33;2.70;;;;;;;19.42;nan;61551.19;5033223;28;20163;-65
2023/10/11 11:01:52;;;;;;;6.03;2.92;;;;;;;19.53;nan;61703.03;5033435;28;20632;-68
2023/10/11 11:04:22;;;;;;;2.45;1.98;;;;;;;19.38;nan;61458.56;5033199;28;20624;-67
2023/10/11 11:06:49;;;;;;;2.75;2.13;;;;;;;19.83;nan;61807.09;5032801;28;20654;-66
2023/10/11 11:09:27;;;;;;;3.75;2.15;;;;;;;19.98;nan;61787.25;5032994;28;20218;-65
2023/10/11 11:11:55;;;;;;;2.80;1.80;;;;;;;19.87;nan;61609.38;5033057;28;20285;-67
2023/10/11 11:14:20;;;;;;;1.33;1.10;;;;;;;20.07;nan;61748.75;5032820;28;20171;-65
2023/10/11 11:17:09;;;;;;;2.97;1.48;;;;;;;20.28;nan;61795.41;5032549;28;20228;-67
2023/10/11 11:19:34;;;;;;;1.20;1.10;;;;;;;20.25;nan;61574.59;5033060;28;20162;-67
2023/10/11 11:22:13;;;;;;;2.63;1.15;;;;;;;20.31;nan;61702.81;5032904;28;20176;-65
2023/10/11 11:24:41;;;;;;;1.30;1.20;;;;;;;20.10;nan;61739.22;5032956;28;20254;-65
2023/10/11 11:27:27;;;;;;;1.17;1.05;;;;;;;20.04;nan;61584.53;5032713;28;20261;-64
2023/10/11 11:30:02;;;;;;;0.80;0.80;;;;;;;20.31;nan;61658.13;5032507;28;20174;-65
2023/10/11 11:32:37;;;;;;;1.52;1.05;;;;;;;20.31;nan;61637.38;5032836;28;20186;-66
2023/10/11 11:35:04;;;;;;;1.00;1.00;;;;;;;20.57;nan;61710.97;5032411;28;20179;-67
2023/10/11 11:37:31;;;;;;;1.30;1.17;;;;;;;20.76;nan;61688.38;5032419;28;20179;-67
2023/10/11 11:40:18;;;;;;;1.30;1.08;;;;;;;20.74;nan;61657.56;5031716;28;20167;-65
2023/10/11 11:42:47;;;;;;;1.00;1.00;;;;;;;20.67;nan;61680.75;5031836;28;20274;-66
2023/10/11 11:45:26;;;;;;;1.45;1.08;;;;;;;20.47;nan;61720.41;5032326;28;20159;-67
2023/10/11 11:47:57;;;;;;;3.65;1.10;;;;;;;20.27;nan;61755.91;5032452;28;20171;-66
2023/10/11 11:50:31;;;;;;;2.35;1.50;;;;;;;20.12;nan;61613.78;5031938;28;20203;-66
2023/10/11 11:52:57;;;;;;;1.38;1.27;;;;;;;19.96;nan;61543.81;5032137;28;20628;-65
2023/10/11 11:55:23;;;;;;;1.38;1.20;;;;;;;20.16;nan;61615.75;5032654;28;20172;-66
2023/10/11 11:57:49;;;;;;;3.65;1.90;;;;;;;19.95;nan;61662.53;5031952;28;20179;-67
2023/10/11 12:02:55;;;;;;;1.58;1.40;;;;;;;19.81;nan;61589.63;5031720;28;20603;-66
2023/10/11 12:05:21;;;;;;;1.85;1.55;;;;;;;19.76;nan;61524.31;5030014;28;20191;-66
2023/10/11 12:07:57;;;;;;;3.88;2.00;;;;;;;20.33;nan;61699.31;5029840;28;20662;-67
2023/10/11 12:10:26;;;;;;;1.23;1.10;;;;;;;20.47;nan;61656.06;5031698;28;20187;-67
2023/10/11 12:12:55;;;;;;;1.70;1.60;;;;;;;20.62;nan;61763.94;5031440;28;20309;-65
2023/10/11 12:15:21;;;;;;;3.53;1.83;;;;;;;20.34;nan;61841.16;5030861;28;20253;-64
2023/10/11 12:17:53;;;;;;;1.92;1.67;;;;;;;20.19;nan;61663.81;5031332;28;20175;-65
2023/10/11 12:20:22;;;;;;;2.88;2.20;;;;;;;20.05;nan;61601.25;5031464;28;20669;-64
2023/10/11 12:22:48;;;;;;;2.78;2.13;;;;;;;19.96;nan;61725.91;5031022;28;20575;-65
2023/10/11 12:25:14;;;;;;;1.45;1.35;;;;;;;20.27;nan;61667.13;5031371;28;20250;-65
2023/10/11 12:27:43;;;;;;;1.13;1.13;;;;;;;20.36;nan;61617.66;5031173;28;20619;-65
2023/10/11 12:30:19;;;;;;;1.02;1.02;;;;;;;20.13;nan;61742.59;5029394;28;20202;-66
2023/10/11 12:32:46;;;;;;;1.13;1.02;;;;;;;20.04;nan;61589.72;5031271;28;20194;-64
2023/10/11 12:35:12;;;;;;;5.10;1.20;;;;;;;20.00;nan;61613.16;5031191;28;20531;-65
2023/10/11 12:37:40;;;;;;;1.92;0.90;;;;;;;19.96;nan;61569.75;5031063;28;20234;-64
2023/10/11 12:40:12;;;;;;;1.27;1.17;;;;;;;20.18;nan;61701.59;5031109;28;20171;-65
2023/10/11 12:42:38;;;;;;;1.25;1.15;;;;;;;19.92;nan;61721.38;5030582;28;20712;-64
2023/10/11 12:45:07;;;;;;;1.98;1.58;;;;;;;19.99;nan;61607.41;5031040;28;20164;-65
2023/10/11 12:47:36;;;;;;;1.13;1.08;;;;;;;20.02;nan;61662.13;5031013;28;20176;-66
2023/10/11 12:50:03;;;;;;;1.02;1.00;;;;;;;20.01;nan;61591.53;5031092;28;20171;-65
2023/10/11 12:52:30;;;;;;;1.17;0.90;;;;;;;19.99;nan;61736.53;5030951;28;20221;-65
2023/10/11 12:55:00;;;;;;;0.85;0.80;;;;;;;20.22;nan;61643.84;5030789;28;20583;-63
2023/10/11 12:57:28;;;;;;;2.03;1.08;;;;;;;20.14;nan;61671.09;5030894;28;20171;-66
2023/10/11 12:59:53;;;;;;;3.17;0.93;;;;;;;20.22;nan;61645.88;5031037;28;20180;-65
2023/10/11 13:02:30;;;;;;;1.50;1.23;;;;;;;20.37;nan;61716.84;5030908;28;20180;-65